Time;durP1;ratioP1;P1;durP2;ratioP2;P2;SDS_P1;SDS_P2;PMS_P1;PMS_P2;Temp;Humidity;BMP_temperature;BMP_pressure;BME280_temperature;BME280_humidity;BME280_pressure;Samples;Min_cycle;Max_cycle;Signal;HPM_P1;HPM_P2
2023/06/12 00:00:51;;;;;;;0.40;0.30;;;;;;;18.44;100.00;100523.78;5088236;28;20047;-80
2023/06/12 00:03:19;;;;;;;1.95;0.25;;;;;;;18.43;100.00;100518.63;5093497;28;20111;-80
2023/06/12 00:05:46;;;;;;;2.13;0.30;;;;;;;18.38;100.00;100521.06;5087557;28;20032;-81
2023/06/12 00:08:13;;;;;;;1.52;0.20;;;;;;;18.28;100.00;100526.75;5068078;28;20036;-78
2023/06/12 00:10:40;;;;;;;2.10;0.30;;;;;;;18.27;100.00;100525.91;5088648;28;20032;-79
2023/06/12 00:13:10;;;;;;;0.80;0.40;;;;;;;18.32;100.00;100518.16;5086453;28;20082;-79
2023/06/12 00:15:36;;;;;;;0.98;0.30;;;;;;;18.35;100.00;100522.28;5062962;28;20028;-78
2023/06/12 00:18:03;;;;;;;0.68;0.45;;;;;;;18.40;100.00;100525.19;5105991;28;20028;-79
2023/06/12 00:20:29;;;;;;;1.67;0.57;;;;;;;18.44;100.00;100514.94;5107797;28;20051;-79
2023/06/12 00:22:56;;;;;;;1.05;0.43;;;;;;;18.47;100.00;100515.34;5086095;28;20036;-79
2023/06/12 00:25:21;;;;;;;0.50;0.50;;;;;;;18.49;100.00;100506.31;5097912;28;20067;-79
2023/06/12 00:27:47;;;;;;;1.33;0.50;;;;;;;18.49;100.00;100512.47;5071959;28;20024;-80
2023/06/12 00:30:14;;;;;;;2.85;0.60;;;;;;;18.44;100.00;100518.44;5083566;28;20559;-80
2023/06/12 00:32:40;;;;;;;0.50;0.50;;;;;;;18.45;100.00;100516.59;5069941;28;20060;-78
2023/06/12 00:35:06;;;;;;;2.38;0.73;;;;;;;18.46;100.00;100512.88;5073812;28;20043;-78
2023/06/12 00:37:32;;;;;;;1.15;0.52;;;;;;;18.46;100.00;100507.53;5065765;28;20469;-78
2023/06/12 00:39:58;;;;;;;0.45;0.40;;;;;;;18.51;100.00;100502.41;5087611;28;20048;-79
2023/06/12 00:42:33;;;;;;;0.65;0.30;;;;;;;18.58;100.00;100495.28;5090599;28;20015;-80
2023/06/12 00:44:58;;;;;;;0.43;0.40;;;;;;;18.57;100.00;100500.81;5090926;28;20043;-79
2023/06/12 00:47:25;;;;;;;1.10;0.60;;;;;;;18.57;100.00;100496.28;5093439;28;20024;-80
2023/06/12 00:49:51;;;;;;;1.33;0.70;;;;;;;18.53;100.00;100489.69;5090720;28;20448;-81
2023/06/12 00:52:18;;;;;;;1.50;0.80;;;;;;;18.47;100.00;100479.75;5073972;28;20060;-81
2023/06/12 00:54:46;;;;;;;1.58;0.70;;;;;;;18.46;100.00;100481.59;5104970;28;20027;-80
2023/06/12 00:57:12;;;;;;;1.45;0.60;;;;;;;18.40;100.00;100482.38;5087690;28;20036;-79
2023/06/12 00:59:37;;;;;;;1.17;0.65;;;;;;;18.31;100.00;100484.41;5114247;28;20730;-80
2023/06/12 01:02:06;;;;;;;1.15;0.70;;;;;;;18.25;100.00;100487.81;5081938;28;20032;-80
2023/06/12 01:04:33;;;;;;;1.08;0.68;;;;;;;18.17;100.00;100488.78;5075795;28;20483;-79
2023/06/12 01:07:29;;;;;;;0.93;0.60;;;;;;;18.10;100.00;100483.38;5087074;28;20080;-80
2023/06/12 01:10:07;;;;;;;1.13;0.50;;;;;;;18.01;100.00;100489.06;5100540;28;20532;-81
2023/06/12 01:12:35;;;;;;;0.50;0.50;;;;;;;17.95;100.00;100498.66;5074139;28;20048;-81
2023/06/12 01:15:01;;;;;;;2.47;0.50;;;;;;;17.94;100.00;100497.84;5085704;28;20036;-80
2023/06/12 01:17:27;;;;;;;1.65;0.63;;;;;;;17.94;100.00;100492.50;5086412;28;20020;-81
2023/06/12 01:19:56;;;;;;;0.70;0.40;;;;;;;17.98;100.00;100488.41;5040883;28;20504;-81
2023/06/12 01:22:25;;;;;;;1.90;0.40;;;;;;;17.98;100.00;100485.72;5091525;28;20035;-79
2023/06/12 01:25:13;;;;;;;1.15;0.40;;;;;;;18.00;100.00;100487.41;5091295;28;20511;-80
2023/06/12 01:28:02;;;;;;;1.38;0.40;;;;;;;17.96;100.00;100487.78;5103571;28;20059;-79
2023/06/12 01:31:08;;;;;;;0.68;0.40;;;;;;;17.92;100.00;100489.19;5104338;28;20039;-79
2023/06/12 01:33:40;;;;;;;0.80;0.30;;;;;;;17.93;100.00;100487.34;5060620;28;20043;-80
2023/06/12 01:36:11;;;;;;;1.75;0.47;;;;;;;17.94;100.00;100483.66;5072954;28;20110;-80
2023/06/12 01:38:39;;;;;;;0.80;0.60;;;;;;;17.94;100.00;100489.00;5091159;28;20039;-80
2023/06/12 01:41:08;;;;;;;0.93;0.50;;;;;;;17.94;100.00;100487.16;5073652;28;20043;-80
2023/06/12 01:43:36;;;;;;;0.50;0.47;;;;;;;17.91;100.00;100486.69;5089534;28;20476;-79
2023/06/12 01:46:03;;;;;;;0.93;0.60;;;;;;;17.89;100.00;100497.59;5093316;28;20040;-80
2023/06/12 01:48:30;;;;;;;1.67;0.60;;;;;;;17.85;100.00;100493.66;5077820;28;20440;-80
2023/06/12 01:50:55;;;;;;;0.80;0.60;;;;;;;17.85;100.00;100490.97;5101338;28;20039;-80
2023/06/12 01:53:23;;;;;;;0.90;0.63;;;;;;;17.84;100.00;100491.97;5107090;28;20031;-80
2023/06/12 01:55:49;;;;;;;3.47;0.68;;;;;;;17.85;100.00;100490.97;5071838;28;20552;-80
2023/06/12 01:58:18;;;;;;;1.08;0.50;;;;;;;17.82;100.00;100491.38;5075353;28;20059;-80
2023/06/12 02:01:03;;;;;;;1.80;0.80;;;;;;;17.83;100.00;100485.81;5078487;28;20192;-81
2023/06/12 02:03:32;;;;;;;2.60;0.60;;;;;;;17.82;100.00;100486.03;5091670;28;20027;-80
2023/06/12 02:05:58;;;;;;;0.75;0.40;;;;;;;17.76;100.00;100479.56;5072168;27;20115;-82
2023/06/12 02:08:24;;;;;;;1.40;0.70;;;;;;;17.76;100.00;100476.91;5097579;28;20473;-80
2023/06/12 02:10:49;;;;;;;1.50;0.57;;;;;;;17.76;100.00;100482.25;5072217;28;20032;-81
2023/06/12 02:13:15;;;;;;;1.85;0.50;;;;;;;17.73;100.00;100472.78;5087610;28;20028;-80
2023/06/12 02:15:41;;;;;;;1.67;0.60;;;;;;;17.72;100.00;100470.28;5103245;28;20108;-80
2023/06/12 02:18:07;;;;;;;0.57;0.52;;;;;;;17.70;100.00;100472.31;5074550;28;20520;-80
2023/06/12 02:20:33;;;;;;;3.10;0.60;;;;;;;17.71;100.00;100472.13;5075061;28;20104;-80
2023/06/12 02:22:59;;;;;;;1.52;0.68;;;;;;;17.72;100.00;100468.47;5090997;28;20085;-81
2023/06/12 02:25:25;;;;;;;3.17;0.80;;;;;;;17.73;100.00;100471.94;5069993;28;20039;-81
2023/06/12 02:27:50;;;;;;;1.42;0.70;;;;;;;17.70;100.00;100462.47;5067661;28;20085;-80
2023/06/12 02:30:25;;;;;;;1.13;0.85;;;;;;;17.68;100.00;100469.00;5087097;28;20035;-80
2023/06/12 02:32:52;;;;;;;2.53;0.70;;;;;;;17.67;100.00;100462.84;5089857;28;20035;-80
2023/06/12 02:35:18;;;;;;;4.93;0.50;;;;;;;17.61;100.00;100459.06;5067560;28;20044;-81
2023/06/12 02:37:44;;;;;;;1.58;0.68;;;;;;;17.59;100.00;100468.31;5092914;28;20036;-80
2023/06/12 02:40:11;;;;;;;1.85;0.93;;;;;;;17.56;100.00;100460.69;5095329;27;20404;-80
2023/06/12 02:42:37;;;;;;;2.38;0.98;;;;;;;17.53;100.00;100459.22;5084963;28;20035;-80
2023/06/12 02:45:03;;;;;;;8.77;1.10;;;;;;;17.52;100.00;100457.56;5076331;28;20045;-80
2023/06/12 02:47:31;;;;;;;1.30;1.00;;;;;;;17.53;100.00;100458.38;5077044;28;20062;-80
2023/06/12 02:49:57;;;;;;;1.83;1.00;;;;;;;17.49;100.00;100460.59;5096561;28;20125;-81
2023/06/12 02:52:26;;;;;;;1.65;1.00;;;;;;;17.44;100.00;100449.69;5087336;28;20034;-80
2023/06/12 02:54:52;;;;;;;1.70;0.70;;;;;;;17.40;100.00;100446.56;5079205;28;20111;-81
2023/06/12 02:57:18;;;;;;;0.80;0.73;;;;;;;17.37;100.00;100446.94;5074764;27;20583;-80
2023/06/12 02:59:44;;;;;;;3.22;1.00;;;;;;;17.27;100.00;100452.56;5075546;28;20028;-80
2023/06/12 03:02:15;;;;;;;2.33;0.80;;;;;;;17.19;100.00;100452.69;5101444;28;20505;-80
2023/06/12 03:04:47;;;;;;;0.60;0.60;;;;;;;17.15;100.00;100454.91;5098730;27;20044;-80
2023/06/12 03:07:16;;;;;;;5.10;1.05;;;;;;;17.11;100.00;100459.81;5108148;28;20024;-80
2023/06/12 03:09:43;;;;;;;1.58;0.98;;;;;;;17.08;100.00;100460.19;5074317;28;20043;-80
2023/06/12 03:12:09;;;;;;;3.28;1.40;;;;;;;17.05;100.00;100462.34;5095372;28;20039;-80
2023/06/12 03:14:36;;;;;;;1.02;0.93;;;;;;;17.04;100.00;100463.38;5076086;28;20126;-80
2023/06/12 03:17:03;;;;;;;1.40;0.88;;;;;;;17.00;100.00;100465.59;5097546;28;20032;-80
2023/06/12 03:19:29;;;;;;;3.95;1.23;;;;;;;16.96;100.00;100473.13;5093929;28;20488;-80
2023/06/12 03:21:55;;;;;;;1.58;1.00;;;;;;;16.97;100.00;100471.31;5092222;28;20035;-80
2023/06/12 03:24:21;;;;;;;2.35;1.05;;;;;;;16.89;100.00;100464.22;5062385;28;20035;-80
2023/06/12 03:26:47;;;;;;;1.77;1.13;;;;;;;16.88;100.00;100469.75;5080720;28;20439;-80
2023/06/12 03:29:13;;;;;;;1.63;1.10;;;;;;;16.88;100.00;100469.75;5077373;28;20085;-80
2023/06/12 03:31:39;;;;;;;3.60;1.30;;;;;;;16.87;100.00;100474.25;5071631;27;20055;-80
2023/06/12 03:34:05;;;;;;;2.22;1.50;;;;;;;16.89;100.00;100469.56;5080117;28;20148;-80
2023/06/12 03:36:37;;;;;;;2.30;1.27;;;;;;;16.88;100.00;100470.59;5089082;28;20490;-80
2023/06/12 03:39:09;;;;;;;1.67;1.33;;;;;;;16.84;100.00;100470.13;5081957;28;20031;-80
2023/06/12 03:41:35;;;;;;;3.72;1.60;;;;;;;16.87;100.00;100476.91;5090456;28;20043;-80
2023/06/12 03:44:02;;;;;;;3.17;1.55;;;;;;;16.85;100.00;100463.75;5087108;28;20032;-80
2023/06/12 03:46:30;;;;;;;2.20;1.50;;;;;;;16.84;100.00;100466.63;5092374;28;20028;-81
2023/06/12 03:48:59;;;;;;;2.55;1.63;;;;;;;16.82;100.00;100468.63;5084743;28;20156;-80
2023/06/12 03:51:25;;;;;;;5.38;1.73;;;;;;;16.79;100.00;100475.19;5084210;28;20109;-80
2023/06/12 03:53:51;;;;;;;9.40;1.95;;;;;;;16.81;100.00;100472.31;5091878;28;20393;-80
2023/06/12 03:56:17;;;;;;;2.17;1.73;;;;;;;16.80;100.00;100470.69;5077517;27;20089;-81
2023/06/12 03:58:44;;;;;;;4.10;1.60;;;;;;;16.77;100.00;100471.06;5105370;27;20085;-80
2023/06/12 04:01:09;;;;;;;4.57;2.05;;;;;;;16.77;100.00;100473.72;5096245;27;20556;-80
2023/06/12 04:03:38;;;;;;;6.25;1.70;;;;;;;16.77;100.00;100471.06;5128802;28;20625;-80
2023/06/12 04:06:04;;;;;;;3.42;1.90;;;;;;;16.78;100.00;100480.69;5116573;27;20083;-80
2023/06/12 04:08:30;;;;;;;3.33;1.77;;;;;;;16.76;100.00;100480.88;5096272;27;20069;-80
2023/06/12 04:10:55;;;;;;;4.15;1.42;;;;;;;16.77;100.00;100479.06;5104458;27;20070;-80
2023/06/12 04:13:21;;;;;;;2.80;1.90;;;;;;;16.79;100.00;100477.84;5105922;27;20058;-80
2023/06/12 04:15:49;;;;;;;3.10;1.80;;;;;;;16.80;100.00;100487.50;5118131;27;20061;-80
2023/06/12 04:18:14;;;;;;;2.60;1.90;;;;;;;16.78;100.00;100478.88;5115464;27;20066;-81
2023/06/12 04:20:41;;;;;;;2.55;1.85;;;;;;;16.78;100.00;100481.53;5132618;27;20392;-80
2023/06/12 04:23:11;;;;;;;1.65;1.55;;;;;;;16.72;100.00;100477.75;5119597;27;20031;-80
2023/06/12 04:25:38;;;;;;;2.58;1.65;;;;;;;16.68;100.00;100483.63;5134075;27;20171;-80
2023/06/12 04:28:07;;;;;;;1.60;1.50;;;;;;;16.62;100.00;100474.53;5099856;27;20034;-79
2023/06/12 04:30:35;;;;;;;4.15;1.55;;;;;;;16.59;100.00;100481.09;5098081;27;20067;-80
2023/06/12 04:33:02;;;;;;;1.83;1.30;;;;;;;16.48;100.00;100490.34;5107946;27;20035;-80
2023/06/12 04:35:29;;;;;;;3.65;1.25;;;;;;;16.35;100.00;100488.31;5121279;27;20074;-79
2023/06/12 04:37:55;;;;;;;5.75;1.58;;;;;;;16.32;100.00;100494.03;5095529;27;20055;-80
2023/06/12 04:40:22;;;;;;;2.03;1.58;;;;;;;16.26;100.00;100489.38;5112004;27;20050;-80
2023/06/12 04:42:48;;;;;;;2.67;1.92;;;;;;;16.18;100.00;100494.81;5099688;27;20042;-80
2023/06/12 04:45:18;;;;;;;2.97;1.90;;;;;;;16.23;100.00;100490.59;5107925;27;20057;-80
2023/06/12 04:47:44;;;;;;;4.10;1.70;;;;;;;16.28;100.00;100487.38;5095243;27;20088;-80
2023/06/12 04:50:12;;;;;;;4.57;1.98;;;;;;;16.32;100.00;100486.03;5114865;27;20023;-80
2023/06/12 04:52:41;;;;;;;2.67;1.70;;;;;;;16.36;100.00;100489.13;5093771;27;20403;-80
2023/06/12 04:55:08;;;;;;;4.63;1.75;;;;;;;16.38;100.00;100489.78;5091057;27;20103;-80
2023/06/12 04:57:39;;;;;;;5.57;1.83;;;;;;;16.44;100.00;100490.88;5128827;27;20051;-80
2023/06/12 05:00:09;;;;;;;4.80;2.17;;;;;;;16.47;100.00;100488.69;5118256;27;20572;-80
2023/06/12 05:02:37;;;;;;;6.40;2.60;;;;;;;16.51;100.00;100491.00;5115527;27;20508;-81
2023/06/12 05:05:03;;;;;;;4.38;2.70;;;;;;;16.58;100.00;100494.59;5121386;27;20155;-81
2023/06/12 05:07:28;;;;;;;5.07;2.83;;;;;;;16.64;100.00;100487.69;5132368;27;20055;-79
2023/06/12 05:09:58;;;;;;;4.47;2.63;;;;;;;16.68;100.00;100489.81;5082003;28;20116;-80
2023/06/12 05:12:24;;;;;;;9.93;3.55;;;;;;;16.71;100.00;100483.28;5094716;27;20484;-80
2023/06/12 05:14:50;;;;;;;4.43;2.80;;;;;;;16.78;100.00;100491.38;5085858;27;20031;-79
2023/06/12 05:17:16;;;;;;;2.95;2.22;;;;;;;16.85;100.00;100498.47;5100137;27;20091;-79
2023/06/12 05:19:43;;;;;;;3.40;2.58;;;;;;;16.92;100.00;100495.88;5094369;28;20059;-80
2023/06/12 05:22:09;;;;;;;7.47;2.78;;;;;;;16.96;100.00;100504.38;5094677;27;20032;-79
2023/06/12 05:24:36;;;;;;;4.45;3.08;;;;;;;17.00;100.00;100500.28;5102430;27;20043;-79
2023/06/12 05:27:02;;;;;;;3.38;2.40;;;;;;;17.03;100.00;100505.25;5094885;27;20118;-80
2023/06/12 05:29:28;;;;;;;3.63;3.05;;;;;;;17.01;100.00;100498.47;5102285;27;20090;-81
2023/06/12 05:31:54;;;;;;;4.28;3.42;;;;;;;17.02;100.00;100500.13;5111583;27;20559;-79
2023/06/12 05:34:19;;;;;;;4.55;3.22;;;;;;;17.03;100.00;100507.94;5110163;28;20035;-80
2023/06/12 05:36:46;;;;;;;3.63;3.33;;;;;;;17.06;100.00;100514.72;5107038;27;20357;-80
2023/06/12 05:39:11;;;;;;;4.25;3.30;;;;;;;17.05;100.00;100510.41;5102652;27;20031;-80
2023/06/12 05:41:37;;;;;;;3.88;3.17;;;;;;;17.07;100.00;100511.06;5125960;27;20055;-80
2023/06/12 05:44:05;;;;;;;5.03;3.92;;;;;;;17.08;100.00;100521.59;5106260;27;20492;-81
2023/06/12 05:46:31;;;;;;;3.85;2.75;;;;;;;17.11;100.00;100518.56;5096685;27;20024;-79
2023/06/12 05:48:59;;;;;;;4.53;3.85;;;;;;;17.18;100.00;100526.66;5090889;28;20551;-79
2023/06/12 05:51:25;;;;;;;4.72;3.65;;;;;;;17.20;100.00;100524.59;5109481;27;20513;-81
2023/06/12 05:53:51;;;;;;;6.43;3.80;;;;;;;17.24;100.00;100525.06;5119093;27;20035;-80
2023/06/12 05:56:17;;;;;;;5.43;3.88;;;;;;;17.28;100.00;100528.22;5096288;27;20498;-80
2023/06/12 05:58:43;;;;;;;5.88;3.65;;;;;;;17.31;100.00;100533.97;5102599;27;20107;-80
2023/06/12 06:01:16;;;;;;;7.20;3.78;;;;;;;17.33;100.00;100534.63;5109024;27;20027;-80
2023/06/12 06:04:00;;;;;;;5.82;3.05;;;;;;;17.38;100.00;100538.56;5127801;27;20031;-80
2023/06/12 06:06:30;;;;;;;3.83;3.53;;;;;;;17.34;100.00;100538.13;5132109;27;20050;-80
2023/06/12 06:08:56;;;;;;;4.45;3.70;;;;;;;17.33;100.00;100547.16;5105596;27;20088;-81
2023/06/12 06:11:23;;;;;;;5.13;3.85;;;;;;;17.26;100.00;100536.41;5097747;27;20045;-80
2023/06/12 06:13:49;;;;;;;3.90;3.60;;;;;;;17.26;100.00;100546.25;5147634;27;20026;-80
2023/06/12 06:16:15;;;;;;;5.97;3.95;;;;;;;17.27;100.00;100540.72;5102983;27;20035;-80
2023/06/12 06:18:41;;;;;;;5.20;3.70;;;;;;;17.28;100.00;100536.22;5106699;27;20120;-80
2023/06/12 06:21:07;;;;;;;7.90;4.30;;;;;;;17.31;100.00;100541.19;5088378;27;20031;-80
2023/06/12 06:23:34;;;;;;;5.07;3.88;;;;;;;17.32;100.00;100543.66;5119041;27;20039;-79
2023/06/12 06:26:02;;;;;;;6.00;3.80;;;;;;;17.36;100.00;100549.44;5128213;27;20035;-81
2023/06/12 06:28:28;;;;;;;6.85;3.67;;;;;;;17.39;100.00;100545.59;5094433;27;20030;-80
2023/06/12 06:30:54;;;;;;;5.07;4.00;;;;;;;17.35;100.00;100540.63;5096109;27;20038;-80
2023/06/12 06:33:20;;;;;;;4.20;3.67;;;;;;;17.35;100.00;100553.97;5117432;27;20026;-80
2023/06/12 06:35:46;;;;;;;4.68;4.20;;;;;;;17.34;100.00;100554.97;5104415;27;21230;-80
2023/06/12 06:38:12;;;;;;;7.95;4.55;;;;;;;17.34;100.00;100557.66;5100855;27;20364;-80
2023/06/12 06:40:37;;;;;;;5.75;3.95;;;;;;;17.36;100.00;100560.13;5109627;27;20087;-80
2023/06/12 06:43:03;;;;;;;11.23;3.97;;;;;;;17.37;100.00;100564.47;5124022;27;20034;-80
2023/06/12 06:45:41;;;;;;;5.78;3.90;;;;;;;17.40;100.00;100558.75;5113481;27;20030;-81
2023/06/12 06:48:08;;;;;;;4.75;3.83;;;;;;;17.54;100.00;100562.41;5120877;27;20084;-81
2023/06/12 06:50:34;;;;;;;3.83;3.47;;;;;;;17.67;100.00;100563.59;5122464;27;20031;-80
2023/06/12 06:53:04;;;;;;;5.82;4.13;;;;;;;17.77;100.00;100561.44;5117375;27;20042;-80
2023/06/12 06:55:30;;;;;;;4.45;4.03;;;;;;;17.81;100.00;100554.69;5129091;27;20038;-80
2023/06/12 06:57:57;;;;;;;5.30;4.47;;;;;;;17.79;100.00;100563.94;5098103;28;20043;-80
2023/06/12 07:00:23;;;;;;;5.95;4.20;;;;;;;17.75;100.00;100559.97;5106817;27;20387;-83
2023/06/12 07:02:49;;;;;;;8.13;4.20;;;;;;;17.70;100.00;100552.50;5110315;28;20031;-80
2023/06/12 07:05:18;;;;;;;5.82;3.92;;;;;;;17.69;100.00;100553.53;5087868;28;20057;-81
2023/06/12 07:07:47;;;;;;;6.85;4.22;;;;;;;17.68;100.00;100554.53;5101321;28;20034;-79
2023/06/12 07:10:13;;;;;;;4.15;3.75;;;;;;;17.51;100.00;100557.44;5089006;28;20035;-81
2023/06/12 07:12:39;;;;;;;5.72;3.97;;;;;;;17.52;100.00;100555.63;5101007;28;20039;-80
2023/06/12 07:15:06;;;;;;;5.15;4.10;;;;;;;17.56;100.00;100552.38;5078477;28;20019;-81
2023/06/12 07:17:32;;;;;;;5.93;4.25;;;;;;;17.56;100.00;100554.22;5112253;27;20112;-81
2023/06/12 07:19:59;;;;;;;8.45;3.92;;;;;;;17.63;100.00;100557.78;5096492;28;20042;-80
2023/06/12 07:22:27;;;;;;;9.60;3.60;;;;;;;17.84;100.00;100561.50;5103434;28;20027;-79
2023/06/12 07:24:53;;;;;;;4.35;3.70;;;;;;;18.04;100.00;100561.72;5127910;27;20107;-80
2023/06/12 07:27:18;;;;;;;7.03;4.18;;;;;;;18.30;100.00;100551.47;5093467;28;20126;-81
2023/06/12 07:29:44;;;;;;;9.13;3.55;;;;;;;18.51;100.00;100563.13;5092801;28;20122;-81
2023/06/12 07:32:10;;;;;;;6.65;3.65;;;;;;;18.54;100.00;100554.75;5108694;28;20031;-81
2023/06/12 07:34:37;;;;;;;6.75;2.97;;;;;;;18.62;100.00;100554.59;5113870;27;20485;-80
2023/06/12 07:37:04;;;;;;;3.78;2.72;;;;;;;18.66;100.00;100568.41;5111409;27;20067;-80
2023/06/12 07:39:30;;;;;;;4.38;2.83;;;;;;;18.82;100.00;100569.97;5094778;27;20453;-81
2023/06/12 07:41:58;;;;;;;3.35;3.05;;;;;;;18.97;100.00;100561.81;5112332;28;20045;-80
2023/06/12 07:44:24;;;;;;;3.08;2.78;;;;;;;19.03;100.00;100562.88;5128355;27;20026;-81
2023/06/12 07:46:50;;;;;;;4.10;3.42;;;;;;;19.01;100.00;100554.19;5117767;27;20031;-81
2023/06/12 07:49:17;;;;;;;2.92;2.72;;;;;;;19.00;100.00;100555.25;5110149;28;20027;-81
2023/06/12 07:51:43;;;;;;;3.20;2.90;;;;;;;19.04;100.00;100561.84;5129322;28;20096;-82
2023/06/12 07:54:08;;;;;;;3.05;2.33;;;;;;;19.23;100.00;100570.19;5106070;28;20059;-82
2023/06/12 07:56:37;;;;;;;4.68;3.40;;;;;;;19.36;100.00;100564.91;5108970;28;20516;-81
2023/06/12 07:59:10;;;;;;;3.72;3.22;;;;;;;19.47;100.00;100568.88;5098458;28;20142;-81
2023/06/12 08:01:39;;;;;;;3.90;3.28;;;;;;;19.48;100.00;100573.19;5092225;28;20077;-80
2023/06/12 08:04:12;;;;;;;4.32;3.38;;;;;;;19.33;100.00;100576.03;5108119;28;20034;-81
2023/06/12 08:06:40;;;;;;;3.70;3.40;;;;;;;19.18;100.00;100568.97;5108842;28;20028;-81
2023/06/12 08:09:09;;;;;;;6.68;3.30;;;;;;;19.16;100.00;100573.69;5109213;28;20031;-81
2023/06/12 08:11:35;;;;;;;3.38;3.08;;;;;;;19.12;100.00;100571.59;5101527;28;20031;-81
2023/06/12 08:14:02;;;;;;;5.03;3.50;;;;;;;19.13;100.00;100566.03;5109804;28;20031;-81
2023/06/12 08:16:32;;;;;;;5.22;3.03;;;;;;;19.12;100.00;100569.75;5092063;28;20126;-82
2023/06/12 08:18:58;;;;;;;4.20;3.30;;;;;;;19.08;100.00;100574.63;5104395;28;20031;-81
2023/06/12 08:21:26;;;;;;;4.38;3.10;;;;;;;19.03;100.00;100577.06;5090216;28;20059;-82
2023/06/12 08:23:52;;;;;;;5.80;3.42;;;;;;;19.01;100.00;100568.44;5076087;28;20035;-80
2023/06/12 08:26:19;;;;;;;3.63;3.20;;;;;;;18.94;100.00;100572.91;5105571;28;20111;-81
2023/06/12 08:28:49;;;;;;;4.00;3.30;;;;;;;18.96;100.00;100569.03;5118626;28;20110;-81
2023/06/12 08:31:16;;;;;;;5.57;3.40;;;;;;;18.94;100.00;100559.50;5106367;28;20046;-81
2023/06/12 08:33:42;;;;;;;7.80;3.22;;;;;;;18.97;100.00;100573.34;5087839;28;20042;-81
2023/06/12 08:36:07;;;;;;;5.45;3.92;;;;;;;18.97;100.00;100559.13;5102841;28;20035;-81
2023/06/12 08:38:33;;;;;;;8.15;3.28;;;;;;;18.97;100.00;100551.09;5102834;28;20035;-81
2023/06/12 08:41:02;;;;;;;5.93;3.10;;;;;;;19.06;100.00;100563.28;5098749;27;20030;-81
2023/06/12 08:43:33;;;;;;;4.72;3.47;;;;;;;19.09;100.00;100573.66;5118849;27;20046;-81
2023/06/12 08:46:03;;;;;;;4.53;3.47;;;;;;;19.08;100.00;100563.94;5094099;28;20027;-80
2023/06/12 08:48:30;;;;;;;7.97;3.55;;;;;;;19.06;100.00;100568.66;5128073;28;20038;-80
2023/06/12 08:50:57;;;;;;;7.18;3.75;;;;;;;19.17;100.00;100574.50;5113719;28;20118;-81
2023/06/12 08:53:23;;;;;;;4.50;3.90;;;;;;;19.18;100.00;100568.97;5101018;28;20539;-80
2023/06/12 08:55:50;;;;;;;3.63;3.33;;;;;;;19.23;100.00;100575.56;5108954;27;20442;-81
2023/06/12 08:58:16;;;;;;;3.72;3.42;;;;;;;19.30;100.00;100573.75;5108246;28;20044;-81
2023/06/12 09:00:41;;;;;;;5.70;3.85;;;;;;;19.31;100.00;100572.72;5107681;28;20084;-80
2023/06/12 09:03:08;;;;;;;4.70;4.10;;;;;;;19.33;100.00;100574.16;5093537;28;20038;-81
2023/06/12 09:05:37;;;;;;;5.47;3.78;;;;;;;19.39;100.00;100567.19;5102242;28;20031;-81
2023/06/12 09:08:04;;;;;;;6.22;4.20;;;;;;;19.30;100.00;100565.72;5069389;28;20030;-80
2023/06/12 09:10:36;;;;;;;5.35;4.18;;;;;;;19.28;100.00;100568.59;5089652;28;20359;-81
2023/06/12 09:13:12;;;;;;;6.60;4.07;;;;;;;19.34;100.00;100566.97;5102235;28;20035;-80
2023/06/12 09:15:49;;;;;;;5.85;3.88;;;;;;;19.40;100.00;100568.84;5083270;28;20111;-80
2023/06/12 09:18:14;;;;;;;4.63;3.15;;;;;;;19.53;100.00;100565.38;5083149;28;20028;-81
2023/06/12 09:20:40;;;;;;;3.28;2.97;;;;;;;19.61;100.00;100566.22;5080656;28;20024;-79
2023/06/12 09:23:06;;;;;;;3.60;2.90;;;;;;;19.67;100.00;100571.59;5121053;27;20024;-81
2023/06/12 09:25:41;;;;;;;3.08;2.88;;;;;;;19.75;100.00;100570.59;5095572;28;20103;-81
2023/06/12 09:28:09;;;;;;;5.50;2.90;;;;;;;19.79;100.00;100569.19;5102095;28;20084;-80
2023/06/12 09:30:42;;;;;;;6.38;3.95;;;;;;;19.80;100.00;100570.81;5071329;28;20035;-80
2023/06/12 09:33:08;;;;;;;3.90;3.28;;;;;;;19.80;100.00;100578.03;5099806;28;20028;-81
2023/06/12 09:35:51;;;;;;;3.92;2.95;;;;;;;19.81;100.00;100575.16;5014117;28;20040;-81
2023/06/12 09:38:16;;;;;;;3.58;2.95;;;;;;;19.85;100.00;100572.91;5078929;28;20037;-80
2023/06/12 09:40:42;;;;;;;3.25;2.95;;;;;;;19.88;100.00;100568.97;5049460;28;20398;-79
2023/06/12 09:43:08;;;;;;;2.92;2.70;;;;;;;19.88;100.00;100575.16;5066243;28;20067;-80
2023/06/12 09:45:34;;;;;;;2.83;2.42;;;;;;;19.87;100.00;100578.06;5043567;28;20033;-80
2023/06/12 09:48:00;;;;;;;2.97;2.17;;;;;;;19.78;100.00;100580.09;5066238;28;20048;-80
2023/06/12 09:50:25;;;;;;;2.50;2.30;;;;;;;19.72;100.00;100579.03;5052619;28;20093;-80
2023/06/12 09:52:56;;;;;;;2.30;2.10;;;;;;;19.74;100.00;100589.56;5071058;28;20056;-79
2023/06/12 09:55:26;;;;;;;1.90;1.80;;;;;;;19.73;100.00;100582.56;5070785;28;20040;-79
2023/06/12 09:57:52;;;;;;;2.47;2.28;;;;;;;19.77;100.00;100584.63;5116928;27;20048;-80
2023/06/12 10:00:21;;;;;;;2.58;2.38;;;;;;;19.80;100.00;100588.75;5075141;28;20480;-80
2023/06/12 10:02:52;;;;;;;2.63;2.10;;;;;;;19.81;100.00;100585.06;5101428;28;20028;-80
2023/06/12 10:05:28;;;;;;;2.17;1.85;;;;;;;19.73;100.00;100580.72;5081821;27;20084;-79
2023/06/12 10:07:59;;;;;;;1.80;1.63;;;;;;;19.70;100.00;100581.13;5069366;28;20108;-80
2023/06/12 10:10:25;;;;;;;1.55;1.45;;;;;;;19.66;100.00;100583.38;5093459;28;20028;-79
2023/06/12 10:12:52;;;;;;;1.75;1.65;;;;;;;19.58;100.00;100579.03;5074168;28;20064;-79
2023/06/12 10:15:19;;;;;;;2.22;2.03;;;;;;;19.61;100.00;100580.47;5086022;27;20036;-79
2023/06/12 10:17:47;;;;;;;1.67;1.58;;;;;;;19.63;100.00;100580.25;5071584;28;20151;-80
2023/06/12 10:20:14;;;;;;;2.08;1.88;;;;;;;19.61;100.00;100583.13;5060783;28;20058;-79
2023/06/12 10:22:40;;;;;;;2.10;1.90;;;;;;;19.55;100.00;100583.94;5084600;28;20036;-80
2023/06/12 10:25:08;;;;;;;1.90;1.80;;;;;;;19.57;100.00;100584.59;5092799;28;20400;-80
2023/06/12 10:27:36;;;;;;;2.90;2.40;;;;;;;19.64;100.00;100588.09;5091096;28;20032;-79
2023/06/12 10:30:03;;;;;;;3.25;2.08;;;;;;;19.61;100.00;100585.81;5075237;28;20059;-80
2023/06/12 10:32:31;;;;;;;3.83;2.15;;;;;;;19.64;100.00;100590.78;5055453;28;20081;-82
2023/06/12 10:34:59;;;;;;;3.58;2.47;;;;;;;19.63;100.00;100589.13;5077008;28;20080;-81
2023/06/12 10:37:25;;;;;;;3.80;3.50;;;;;;;19.61;100.00;100593.88;5075658;28;20028;-80
2023/06/12 10:40:12;;;;;;;4.38;2.85;;;;;;;19.63;100.00;100591.81;5072206;28;20063;-79
2023/06/12 10:43:02;;;;;;;3.40;3.17;;;;;;;19.68;100.00;100593.91;5093238;28;20036;-80
2023/06/12 10:45:33;;;;;;;4.97;4.47;;;;;;;19.71;100.00;100588.97;5073779;27;20496;-79
2023/06/12 10:48:08;;;;;;;6.60;3.75;;;;;;;19.86;100.00;100590.63;5079622;28;20031;-80
2023/06/12 10:50:46;;;;;;;6.43;3.58;;;;;;;19.98;100.00;100582.00;5089624;28;20040;-79
2023/06/12 10:53:20;;;;;;;4.53;4.00;;;;;;;20.01;100.00;100576.22;5075456;28;20024;-79
2023/06/12 10:55:46;;;;;;;5.20;4.70;;;;;;;20.03;100.00;100571.50;5046285;27;20027;-81
2023/06/12 10:58:20;;;;;;;7.30;4.65;;;;;;;20.11;100.00;100565.97;5075307;28;20079;-80
2023/06/12 11:00:51;;;;;;;;;;;;;;;20.01;100.00;100574.38;5097054;28;20051;-80
2023/06/12 11:03:28;;;;;;;4.38;3.78;;;;;;;20.09;100.00;100581.44;5068067;28;19999;-81
2023/06/12 11:05:58;;;;;;;6.28;4.70;;;;;;;20.02;100.00;100564.47;5074769;27;20027;-81
2023/06/12 11:08:28;;;;;;;5.03;4.45;;;;;;;20.08;100.00;100569.84;5098075;27;20080;-80
2023/06/12 11:10:54;;;;;;;5.20;4.70;;;;;;;20.03;100.00;100574.19;5075326;28;20441;-79
2023/06/12 11:13:26;;;;;;;4.63;3.70;;;;;;;20.01;100.00;100576.22;5071037;28;20048;-81
2023/06/12 11:15:53;;;;;;;4.22;3.63;;;;;;;19.97;100.00;100573.13;5079526;27;20050;-81
2023/06/12 11:18:20;;;;;;;10.32;4.45;;;;;;;19.91;100.00;100573.94;5090659;28;20039;-80
2023/06/12 11:20:56;;;;;;;4.38;3.97;;;;;;;19.89;100.00;100576.81;5074383;28;20024;-81